sensor_id;sensor_type;location;lat;lon;timestamp;temperature;humidity
55173;DHT22;41061;52.822;6.860;2023-01-15T00:00:22;7.00;99.90
55173;DHT22;41061;52.822;6.860;2023-01-15T00:02:48;7.00;99.90
55173;DHT22;41061;52.822;6.860;2023-01-15T00:05:13;7.00;99.90
55173;DHT22;41061;52.822;6.860;2023-01-15T00:07:39;7.00;99.90
55173;DHT22;41061;52.822;6.860;2023-01-15T00:10:05;7.00;99.90
55173;DHT22;41061;52.822;6.860;2023-01-15T00:12:31;7.00;99.90
55173;DHT22;41061;52.822;6.860;2023-01-15T00:14:56;7.00;99.90
55173;DHT22;41061;52.822;6.860;2023-01-15T00:17:22;7.00;99.90
55173;DHT22;41061;52.822;6.860;2023-01-15T00:19:48;7.00;99.90
55173;DHT22;41061;52.822;6.860;2023-01-15T00:22:13;7.00;99.90
55173;DHT22;41061;52.822;6.860;2023-01-15T00:24:39;7.00;99.90
55173;DHT22;41061;52.822;6.860;2023-01-15T00:27:24;7.00;99.90
55173;DHT22;41061;52.822;6.860;2023-01-15T00:30:12;6.90;99.90
55173;DHT22;41061;52.822;6.860;2023-01-15T00:32:39;7.00;99.90
55173;DHT22;41061;52.822;6.860;2023-01-15T00:35:06;7.00;99.90
55173;DHT22;41061;52.822;6.860;2023-01-15T00:37:31;7.00;99.90
55173;DHT22;41061;52.822;6.860;2023-01-15T00:39:57;7.00;99.90
55173;DHT22;41061;52.822;6.860;2023-01-15T00:42:23;6.90;99.90
55173;DHT22;41061;52.822;6.860;2023-01-15T00:44:48;7.00;99.90
55173;DHT22;41061;52.822;6.860;2023-01-15T00:47:14;7.00;99.90
55173;DHT22;41061;52.822;6.860;2023-01-15T00:49:41;7.00;99.90
55173;DHT22;41061;52.822;6.860;2023-01-15T00:52:07;7.00;99.90
55173;DHT22;41061;52.822;6.860;2023-01-15T00:54:33;7.00;99.90
55173;DHT22;41061;52.822;6.860;2023-01-15T00:56:58;7.00;99.90
55173;DHT22;41061;52.822;6.860;2023-01-15T00:59:24;7.00;99.90
55173;DHT22;41061;52.822;6.860;2023-01-15T01:01:50;7.00;99.90
55173;DHT22;41061;52.822;6.860;2023-01-15T01:04:16;7.00;99.90
55173;DHT22;41061;52.822;6.860;2023-01-15T01:06:42;7.00;99.90
55173;DHT22;41061;52.822;6.860;2023-01-15T01:09:14;7.00;99.90
55173;DHT22;41061;52.822;6.860;2023-01-15T01:11:40;7.00;99.90
55173;DHT22;41061;52.822;6.860;2023-01-15T01:14:06;7.00;99.90
55173;DHT22;41061;52.822;6.860;2023-01-15T01:16:36;7.00;99.90
55173;DHT22;41061;52.822;6.860;2023-01-15T01:19:15;7.00;99.90
55173;DHT22;41061;52.822;6.860;2023-01-15T01:21:42;7.00;99.90
55173;DHT22;41061;52.822;6.860;2023-01-15T01:24:20;7.00;99.90
55173;DHT22;41061;52.822;6.860;2023-01-15T01:26:47;7.00;99.90
55173;DHT22;41061;52.822;6.860;2023-01-15T01:29:15;7.00;99.90
55173;DHT22;41061;52.822;6.860;2023-01-15T01:31:41;6.90;99.90
55173;DHT22;41061;52.822;6.860;2023-01-15T01:34:08;6.90;99.90
55173;DHT22;41061;52.822;6.860;2023-01-15T01:36:35;6.90;99.90
55173;DHT22;41061;52.822;6.860;2023-01-15T01:39:03;6.90;99.90
55173;DHT22;41061;52.822;6.860;2023-01-15T01:41:29;6.90;99.90
55173;DHT22;41061;52.822;6.860;2023-01-15T01:44:01;6.90;99.90
55173;DHT22;41061;52.822;6.860;2023-01-15T01:46:28;6.90;99.90
55173;DHT22;41061;52.822;6.860;2023-01-15T01:49:14;6.90;99.90
55173;DHT22;41061;52.822;6.860;2023-01-15T01:51:44;6.90;99.90
55173;DHT22;41061;52.822;6.860;2023-01-15T01:54:12;6.90;99.90
55173;DHT22;41061;52.822;6.860;2023-01-15T01:56:38;6.90;99.90
55173;DHT22;41061;52.822;6.860;2023-01-15T01:59:05;6.90;99.90
55173;DHT22;41061;52.822;6.860;2023-01-15T02:01:32;6.90;99.90
55173;DHT22;41061;52.822;6.860;2023-01-15T02:03:57;6.90;99.90
55173;DHT22;41061;52.822;6.860;2023-01-15T02:06:25;6.90;99.90
55173;DHT22;41061;52.822;6.860;2023-01-15T02:08:51;6.90;99.90
55173;DHT22;41061;52.822;6.860;2023-01-15T02:11:20;6.90;99.90
55173;DHT22;41061;52.822;6.860;2023-01-15T02:14:54;6.90;99.90
55173;DHT22;41061;52.822;6.860;2023-01-15T02:17:27;6.90;99.90
55173;DHT22;41061;52.822;6.860;2023-01-15T02:20:44;6.90;99.90
55173;DHT22;41061;52.822;6.860;2023-01-15T02:24:06;6.90;99.90
55173;DHT22;41061;52.822;6.860;2023-01-15T02:28:50;6.90;99.90
55173;DHT22;41061;52.822;6.860;2023-01-15T02:31:29;6.90;99.90
55173;DHT22;41061;52.822;6.860;2023-01-15T02:33:59;6.90;99.90
55173;DHT22;41061;52.822;6.860;2023-01-15T02:36:29;6.80;99.90
55173;DHT22;41061;52.822;6.860;2023-01-15T02:38:58;6.90;99.90
55173;DHT22;41061;52.822;6.860;2023-01-15T02:41:30;6.80;99.90
55173;DHT22;41061;52.822;6.860;2023-01-15T02:43:56;6.80;99.90
55173;DHT22;41061;52.822;6.860;2023-01-15T02:46:27;6.90;99.90
55173;DHT22;41061;52.822;6.860;2023-01-15T02:48:54;6.80;99.90
55173;DHT22;41061;52.822;6.860;2023-01-15T02:51:30;6.80;99.90
55173;DHT22;41061;52.822;6.860;2023-01-15T02:54:00;6.80;99.90
55173;DHT22;41061;52.822;6.860;2023-01-15T02:56:30;6.80;99.90
55173;DHT22;41061;52.822;6.860;2023-01-15T02:58:59;6.80;99.90
55173;DHT22;41061;52.822;6.860;2023-01-15T03:01:33;6.70;99.90
55173;DHT22;41061;52.822;6.860;2023-01-15T03:07:13;6.70;99.90
55173;DHT22;41061;52.822;6.860;2023-01-15T03:09:40;6.70;99.90
55173;DHT22;41061;52.822;6.860;2023-01-15T03:14:41;6.80;99.90
55173;DHT22;41061;52.822;6.860;2023-01-15T03:17:31;6.80;99.90
55173;DHT22;41061;52.822;6.860;2023-01-15T03:20:13;6.80;99.90
55173;DHT22;41061;52.822;6.860;2023-01-15T03:22:43;6.80;99.90
55173;DHT22;41061;52.822;6.860;2023-01-15T03:25:24;6.70;99.90
55173;DHT22;41061;52.822;6.860;2023-01-15T03:27:52;6.70;99.90
55173;DHT22;41061;52.822;6.860;2023-01-15T03:30:21;6.70;99.90
55173;DHT22;41061;52.822;6.860;2023-01-15T03:32:47;6.70;99.90
55173;DHT22;41061;52.822;6.860;2023-01-15T03:35:43;6.70;99.90
55173;DHT22;41061;52.822;6.860;2023-01-15T03:38:10;6.70;99.90
55173;DHT22;41061;52.822;6.860;2023-01-15T03:40:37;6.70;99.90
55173;DHT22;41061;52.822;6.860;2023-01-15T03:43:09;6.70;99.90
55173;DHT22;41061;52.822;6.860;2023-01-15T03:45:58;6.70;99.90
55173;DHT22;41061;52.822;6.860;2023-01-15T03:48:33;6.70;99.90
55173;DHT22;41061;52.822;6.860;2023-01-15T03:51:39;6.70;99.90
55173;DHT22;41061;52.822;6.860;2023-01-15T03:54:13;6.70;99.90
55173;DHT22;41061;52.822;6.860;2023-01-15T03:56:50;6.70;99.90
55173;DHT22;41061;52.822;6.860;2023-01-15T03:59:23;6.60;99.90
55173;DHT22;41061;52.822;6.860;2023-01-15T04:01:52;6.60;99.90
55173;DHT22;41061;52.822;6.860;2023-01-15T04:04:18;6.60;99.90
55173;DHT22;41061;52.822;6.860;2023-01-15T04:06:44;6.60;99.90
55173;DHT22;41061;52.822;6.860;2023-01-15T04:09:12;6.60;99.90
55173;DHT22;41061;52.822;6.860;2023-01-15T04:11:39;6.60;99.90
55173;DHT22;41061;52.822;6.860;2023-01-15T04:14:05;6.60;99.90
55173;DHT22;41061;52.822;6.860;2023-01-15T04:16:32;6.50;99.90
55173;DHT22;41061;52.822;6.860;2023-01-15T04:18:59;6.50;99.90
55173;DHT22;41061;52.822;6.860;2023-01-15T04:21:25;6.50;99.90
55173;DHT22;41061;52.822;6.860;2023-01-15T04:23:51;6.50;99.90
55173;DHT22;41061;52.822;6.860;2023-01-15T04:26:17;6.50;99.90
55173;DHT22;41061;52.822;6.860;2023-01-15T04:28:44;6.50;99.90
55173;DHT22;41061;52.822;6.860;2023-01-15T04:31:10;6.50;99.90
55173;DHT22;41061;52.822;6.860;2023-01-15T04:33:35;6.50;99.90
55173;DHT22;41061;52.822;6.860;2023-01-15T04:36:03;6.50;99.90
55173;DHT22;41061;52.822;6.860;2023-01-15T04:38:29;6.50;99.90
55173;DHT22;41061;52.822;6.860;2023-01-15T04:40:55;6.60;99.90
55173;DHT22;41061;52.822;6.860;2023-01-15T04:43:42;6.60;99.90
55173;DHT22;41061;52.822;6.860;2023-01-15T04:46:27;6.60;99.90
55173;DHT22;41061;52.822;6.860;2023-01-15T04:48:52;6.60;99.90
55173;DHT22;41061;52.822;6.860;2023-01-15T04:51:18;6.50;99.90
55173;DHT22;41061;52.822;6.860;2023-01-15T04:53:44;6.60;99.90
55173;DHT22;41061;52.822;6.860;2023-01-15T04:56:09;6.60;99.90
55173;DHT22;41061;52.822;6.860;2023-01-15T04:58:35;6.60;99.90
55173;DHT22;41061;52.822;6.860;2023-01-15T05:01:01;6.60;99.90
55173;DHT22;41061;52.822;6.860;2023-01-15T05:03:28;6.60;99.90
55173;DHT22;41061;52.822;6.860;2023-01-15T05:05:54;6.60;99.90
55173;DHT22;41061;52.822;6.860;2023-01-15T05:08:20;6.60;99.90
55173;DHT22;41061;52.822;6.860;2023-01-15T05:10:46;6.60;99.90
55173;DHT22;41061;52.822;6.860;2023-01-15T05:13:11;6.60;99.90
55173;DHT22;41061;52.822;6.860;2023-01-15T05:15:37;6.60;99.90
55173;DHT22;41061;52.822;6.860;2023-01-15T05:18:05;6.60;99.90
55173;DHT22;41061;52.822;6.860;2023-01-15T05:20:34;6.60;99.90
55173;DHT22;41061;52.822;6.860;2023-01-15T05:23:00;6.60;99.90
55173;DHT22;41061;52.822;6.860;2023-01-15T05:25:25;6.60;99.90
55173;DHT22;41061;52.822;6.860;2023-01-15T05:27:51;6.60;99.90
55173;DHT22;41061;52.822;6.860;2023-01-15T05:30:17;6.50;99.90
55173;DHT22;41061;52.822;6.860;2023-01-15T05:32:43;6.50;99.90
55173;DHT22;41061;52.822;6.860;2023-01-15T05:35:09;6.50;99.90
55173;DHT22;41061;52.822;6.860;2023-01-15T05:37:34;6.50;99.90
55173;DHT22;41061;52.822;6.860;2023-01-15T05:40:00;6.50;99.90
55173;DHT22;41061;52.822;6.860;2023-01-15T05:42:25;6.40;99.90
55173;DHT22;41061;52.822;6.860;2023-01-15T05:44:52;6.40;99.90
55173;DHT22;41061;52.822;6.860;2023-01-15T05:47:17;6.40;99.90
55173;DHT22;41061;52.822;6.860;2023-01-15T05:49:43;6.30;99.90
55173;DHT22;41061;52.822;6.860;2023-01-15T05:52:09;6.30;99.90
55173;DHT22;41061;52.822;6.860;2023-01-15T05:54:34;6.30;99.90
55173;DHT22;41061;52.822;6.860;2023-01-15T05:57:01;6.20;99.90
55173;DHT22;41061;52.822;6.860;2023-01-15T05:59:28;6.20;99.90
55173;DHT22;41061;52.822;6.860;2023-01-15T06:01:55;6.20;99.90
55173;DHT22;41061;52.822;6.860;2023-01-15T06:04:22;6.20;99.90
55173;DHT22;41061;52.822;6.860;2023-01-15T06:06:50;6.20;99.90
55173;DHT22;41061;52.822;6.860;2023-01-15T06:09:16;6.20;99.90
55173;DHT22;41061;52.822;6.860;2023-01-15T06:11:43;6.30;99.90
55173;DHT22;41061;52.822;6.860;2023-01-15T06:14:13;6.20;99.90
55173;DHT22;41061;52.822;6.860;2023-01-15T06:16:39;6.20;99.90
55173;DHT22;41061;52.822;6.860;2023-01-15T06:19:06;6.20;99.90
55173;DHT22;41061;52.822;6.860;2023-01-15T06:21:33;6.30;99.90
55173;DHT22;41061;52.822;6.860;2023-01-15T06:23:59;6.20;99.90
55173;DHT22;41061;52.822;6.860;2023-01-15T06:26:26;6.20;99.90
55173;DHT22;41061;52.822;6.860;2023-01-15T06:28:51;6.20;99.90
55173;DHT22;41061;52.822;6.860;2023-01-15T06:31:20;6.20;99.90
55173;DHT22;41061;52.822;6.860;2023-01-15T06:33:47;6.10;99.90
55173;DHT22;41061;52.822;6.860;2023-01-15T06:36:15;6.00;99.90
55173;DHT22;41061;52.822;6.860;2023-01-15T06:38:41;5.90;99.90
55173;DHT22;41061;52.822;6.860;2023-01-15T06:41:14;5.90;99.90
55173;DHT22;41061;52.822;6.860;2023-01-15T06:43:58;5.90;99.90
55173;DHT22;41061;52.822;6.860;2023-01-15T06:46:45;6.00;99.90
55173;DHT22;41061;52.822;6.860;2023-01-15T06:49:31;6.00;99.90
55173;DHT22;41061;52.822;6.860;2023-01-15T06:51:57;6.00;99.90
55173;DHT22;41061;52.822;6.860;2023-01-15T06:54:23;6.00;99.90
55173;DHT22;41061;52.822;6.860;2023-01-15T06:56:49;5.90;99.90
55173;DHT22;41061;52.822;6.860;2023-01-15T06:59:15;5.80;99.90
55173;DHT22;41061;52.822;6.860;2023-01-15T07:01:41;5.90;99.90
55173;DHT22;41061;52.822;6.860;2023-01-15T07:04:07;5.90;99.90
55173;DHT22;41061;52.822;6.860;2023-01-15T07:06:33;5.90;99.90
55173;DHT22;41061;52.822;6.860;2023-01-15T07:08:58;5.90;99.90
55173;DHT22;41061;52.822;6.860;2023-01-15T07:11:24;5.90;99.90
55173;DHT22;41061;52.822;6.860;2023-01-15T07:13:50;5.90;99.90
55173;DHT22;41061;52.822;6.860;2023-01-15T07:16:30;6.00;99.90
55173;DHT22;41061;52.822;6.860;2023-01-15T07:18:56;5.90;99.90
55173;DHT22;41061;52.822;6.860;2023-01-15T07:21:22;5.90;99.90
55173;DHT22;41061;52.822;6.860;2023-01-15T07:23:48;5.90;99.90
55173;DHT22;41061;52.822;6.860;2023-01-15T07:26:14;5.90;99.90
55173;DHT22;41061;52.822;6.860;2023-01-15T07:28:40;5.90;99.90
55173;DHT22;41061;52.822;6.860;2023-01-15T07:31:06;5.80;99.90
55173;DHT22;41061;52.822;6.860;2023-01-15T07:33:31;5.80;99.90
55173;DHT22;41061;52.822;6.860;2023-01-15T07:35:57;5.80;99.90
55173;DHT22;41061;52.822;6.860;2023-01-15T07:38:27;5.80;99.90
55173;DHT22;41061;52.822;6.860;2023-01-15T07:40:55;5.80;99.90
55173;DHT22;41061;52.822;6.860;2023-01-15T07:43:39;5.80;99.90
55173;DHT22;41061;52.822;6.860;2023-01-15T07:46:24;5.70;99.90
55173;DHT22;41061;52.822;6.860;2023-01-15T07:49:12;5.70;99.90
55173;DHT22;41061;52.822;6.860;2023-01-15T07:51:56;5.60;99.90
55173;DHT22;41061;52.822;6.860;2023-01-15T07:54:22;5.60;99.90
55173;DHT22;41061;52.822;6.860;2023-01-15T07:56:48;5.60;99.90
55173;DHT22;41061;52.822;6.860;2023-01-15T07:59:15;5.60;99.90
55173;DHT22;41061;52.822;6.860;2023-01-15T08:01:41;5.60;99.90
55173;DHT22;41061;52.822;6.860;2023-01-15T08:04:07;5.60;99.90
55173;DHT22;41061;52.822;6.860;2023-01-15T08:06:34;5.70;99.90
55173;DHT22;41061;52.822;6.860;2023-01-15T08:09:00;5.70;99.90
55173;DHT22;41061;52.822;6.860;2023-01-15T08:11:25;5.70;99.90
55173;DHT22;41061;52.822;6.860;2023-01-15T08:14:10;5.70;99.90
55173;DHT22;41061;52.822;6.860;2023-01-15T08:16:54;5.70;99.90
55173;DHT22;41061;52.822;6.860;2023-01-15T08:19:20;5.70;99.90
55173;DHT22;41061;52.822;6.860;2023-01-15T08:21:46;5.70;99.90
55173;DHT22;41061;52.822;6.860;2023-01-15T08:24:12;5.70;99.90
55173;DHT22;41061;52.822;6.860;2023-01-15T08:26:38;5.70;99.90
55173;DHT22;41061;52.822;6.860;2023-01-15T08:29:04;5.70;99.90
55173;DHT22;41061;52.822;6.860;2023-01-15T08:31:29;5.70;99.90
55173;DHT22;41061;52.822;6.860;2023-01-15T08:33:55;5.80;99.90
55173;DHT22;41061;52.822;6.860;2023-01-15T08:36:21;5.80;99.90
55173;DHT22;41061;52.822;6.860;2023-01-15T08:38:48;5.80;99.90
55173;DHT22;41061;52.822;6.860;2023-01-15T08:41:15;5.80;99.90
55173;DHT22;41061;52.822;6.860;2023-01-15T08:43:40;5.90;99.90
55173;DHT22;41061;52.822;6.860;2023-01-15T08:46:06;5.90;99.90
55173;DHT22;41061;52.822;6.860;2023-01-15T08:48:33;5.80;99.90
55173;DHT22;41061;52.822;6.860;2023-01-15T08:51:02;5.90;99.90
55173;DHT22;41061;52.822;6.860;2023-01-15T08:53:28;5.90;99.90
55173;DHT22;41061;52.822;6.860;2023-01-15T08:55:54;5.90;99.90
55173;DHT22;41061;52.822;6.860;2023-01-15T08:58:20;5.90;99.90
55173;DHT22;41061;52.822;6.860;2023-01-15T09:00:46;5.90;99.90
55173;DHT22;41061;52.822;6.860;2023-01-15T09:03:13;6.00;99.90
55173;DHT22;41061;52.822;6.860;2023-01-15T09:05:39;6.00;99.90
55173;DHT22;41061;52.822;6.860;2023-01-15T09:08:05;6.10;99.90
55173;DHT22;41061;52.822;6.860;2023-01-15T09:10:32;6.10;99.90
55173;DHT22;41061;52.822;6.860;2023-01-15T09:12:59;6.00;99.90
55173;DHT22;41061;52.822;6.860;2023-01-15T09:15:27;6.10;99.90
55173;DHT22;41061;52.822;6.860;2023-01-15T09:17:52;6.00;99.90
55173;DHT22;41061;52.822;6.860;2023-01-15T09:20:19;5.90;99.90
55173;DHT22;41061;52.822;6.860;2023-01-15T09:22:45;5.80;99.90
55173;DHT22;41061;52.822;6.860;2023-01-15T09:25:11;5.60;99.90
55173;DHT22;41061;52.822;6.860;2023-01-15T09:27:36;5.50;99.90
55173;DHT22;41061;52.822;6.860;2023-01-15T09:30:03;5.20;99.90
55173;DHT22;41061;52.822;6.860;2023-01-15T09:32:29;5.10;99.90
55173;DHT22;41061;52.822;6.860;2023-01-15T09:34:54;5.10;99.90
55173;DHT22;41061;52.822;6.860;2023-01-15T09:37:20;5.00;99.90
55173;DHT22;41061;52.822;6.860;2023-01-15T09:39:46;4.90;99.90
55173;DHT22;41061;52.822;6.860;2023-01-15T09:42:28;4.90;99.90
55173;DHT22;41061;52.822;6.860;2023-01-15T09:50:47;4.70;99.90
55173;DHT22;41061;52.822;6.860;2023-01-15T09:56:03;4.60;99.90
55173;DHT22;41061;52.822;6.860;2023-01-15T09:58:35;4.60;99.90
55173;DHT22;41061;52.822;6.860;2023-01-15T10:01:02;4.60;99.90
55173;DHT22;41061;52.822;6.860;2023-01-15T10:03:33;4.60;99.90
55173;DHT22;41061;52.822;6.860;2023-01-15T10:09:13;4.60;99.90
55173;DHT22;41061;52.822;6.860;2023-01-15T10:11:44;4.70;99.90
55173;DHT22;41061;52.822;6.860;2023-01-15T10:14:42;4.80;99.90
55173;DHT22;41061;52.822;6.860;2023-01-15T10:17:38;4.90;99.90
55173;DHT22;41061;52.822;6.860;2023-01-15T10:20:27;5.00;99.90
55173;DHT22;41061;52.822;6.860;2023-01-15T10:23:14;5.10;99.90
55173;DHT22;41061;52.822;6.860;2023-01-15T10:25:48;5.10;99.90
55173;DHT22;41061;52.822;6.860;2023-01-15T10:28:28;5.20;99.90
55173;DHT22;41061;52.822;6.860;2023-01-15T10:30:55;5.20;99.90
55173;DHT22;41061;52.822;6.860;2023-01-15T10:34:00;5.10;99.90
55173;DHT22;41061;52.822;6.860;2023-01-15T10:36:45;5.10;99.90
55173;DHT22;41061;52.822;6.860;2023-01-15T10:42:25;5.10;99.90
55173;DHT22;41061;52.822;6.860;2023-01-15T10:45:05;5.20;99.90
55173;DHT22;41061;52.822;6.860;2023-01-15T10:47:36;5.30;99.90
55173;DHT22;41061;52.822;6.860;2023-01-15T10:50:19;5.40;99.90
55173;DHT22;41061;52.822;6.860;2023-01-15T10:55:51;5.60;99.90
55173;DHT22;41061;52.822;6.860;2023-01-15T10:58:37;5.60;99.90
55173;DHT22;41061;52.822;6.860;2023-01-15T11:01:08;5.70;99.90
55173;DHT22;41061;52.822;6.860;2023-01-15T11:03:38;5.60;99.90
55173;DHT22;41061;52.822;6.860;2023-01-15T11:06:07;5.70;99.90
55173;DHT22;41061;52.822;6.860;2023-01-15T11:08:36;5.70;99.90
55173;DHT22;41061;52.822;6.860;2023-01-15T11:14:10;5.80;99.90
55173;DHT22;41061;52.822;6.860;2023-01-15T11:16:54;5.80;99.90
55173;DHT22;41061;52.822;6.860;2023-01-15T11:19:37;5.90;99.90
55173;DHT22;41061;52.822;6.860;2023-01-15T11:22:15;5.90;99.90
55173;DHT22;41061;52.822;6.860;2023-01-15T11:24:47;5.90;99.90
55173;DHT22;41061;52.822;6.860;2023-01-15T11:27:16;5.90;99.90
55173;DHT22;41061;52.822;6.860;2023-01-15T11:29:43;5.90;99.90
55173;DHT22;41061;52.822;6.860;2023-01-15T11:32:35;6.00;99.90
55173;DHT22;41061;52.822;6.860;2023-01-15T11:37:31;6.10;99.90
55173;DHT22;41061;52.822;6.860;2023-01-15T11:39:58;6.20;99.90
55173;DHT22;41061;52.822;6.860;2023-01-15T11:42:31;6.20;99.90
55173;DHT22;41061;52.822;6.860;2023-01-15T11:45:20;6.20;99.90
55173;DHT22;41061;52.822;6.860;2023-01-15T11:48:23;6.30;99.90
55173;DHT22;41061;52.822;6.860;2023-01-15T11:51:09;6.30;99.90
55173;DHT22;41061;52.822;6.860;2023-01-15T11:53:48;6.30;99.90
55173;DHT22;41061;52.822;6.860;2023-01-15T11:56:21;6.30;99.90
55173;DHT22;41061;52.822;6.860;2023-01-15T11:58:50;6.50;99.90
55173;DHT22;41061;52.822;6.860;2023-01-15T12:04:02;6.70;99.90
55173;DHT22;41061;52.822;6.860;2023-01-15T12:06:29;6.80;99.90
55173;DHT22;41061;52.822;6.860;2023-01-15T12:09:09;6.90;99.90
55173;DHT22;41061;52.822;6.860;2023-01-15T12:22:30;7.10;99.90
55173;DHT22;41061;52.822;6.860;2023-01-15T12:27:54;7.00;99.90
55173;DHT22;41061;52.822;6.860;2023-01-15T12:30:35;7.00;99.90
55173;DHT22;41061;52.822;6.860;2023-01-15T12:35:36;7.00;99.90
55173;DHT22;41061;52.822;6.860;2023-01-15T12:40:51;7.10;99.90
55173;DHT22;41061;52.822;6.860;2023-01-15T12:43:26;7.20;99.90
55173;DHT22;41061;52.822;6.860;2023-01-15T12:46:26;7.10;99.90
55173;DHT22;41061;52.822;6.860;2023-01-15T12:51:34;7.00;99.90
55173;DHT22;41061;52.822;6.860;2023-01-15T12:54:09;6.90;99.90
55173;DHT22;41061;52.822;6.860;2023-01-15T12:59:46;6.90;99.90
55173;DHT22;41061;52.822;6.860;2023-01-15T13:02:52;7.00;99.90
55173;DHT22;41061;52.822;6.860;2023-01-15T13:05:26;7.00;99.90
55173;DHT22;41061;52.822;6.860;2023-01-15T13:10:26;6.80;99.90
55173;DHT22;41061;52.822;6.860;2023-01-15T13:12:54;6.80;99.90
55173;DHT22;41061;52.822;6.860;2023-01-15T13:15:28;6.80;99.90
55173;DHT22;41061;52.822;6.860;2023-01-15T13:20:49;6.70;99.90
55173;DHT22;41061;52.822;6.860;2023-01-15T13:29:24;6.40;99.90
55173;DHT22;41061;52.822;6.860;2023-01-15T13:31:57;6.20;99.90
55173;DHT22;41061;52.822;6.860;2023-01-15T13:36:56;6.00;99.90
55173;DHT22;41061;52.822;6.860;2023-01-15T13:39:27;6.00;99.90
55173;DHT22;41061;52.822;6.860;2023-01-15T13:41:57;6.00;99.90
55173;DHT22;41061;52.822;6.860;2023-01-15T13:44:48;6.10;99.90
55173;DHT22;41061;52.822;6.860;2023-01-15T13:47:24;6.20;99.90
55173;DHT22;41061;52.822;6.860;2023-01-15T13:49:57;6.40;99.90
55173;DHT22;41061;52.822;6.860;2023-01-15T13:52:30;6.60;99.90
55173;DHT22;41061;52.822;6.860;2023-01-15T13:57:41;6.80;99.90
55173;DHT22;41061;52.822;6.860;2023-01-15T14:02:53;7.00;99.90
55173;DHT22;41061;52.822;6.860;2023-01-15T14:05:31;7.00;99.90
55173;DHT22;41061;52.822;6.860;2023-01-15T14:07:58;7.00;99.90
55173;DHT22;41061;52.822;6.860;2023-01-15T14:18:35;7.10;99.90
55173;DHT22;41061;52.822;6.860;2023-01-15T14:21:48;7.00;99.90
55173;DHT22;41061;52.822;6.860;2023-01-15T14:24:39;7.00;99.90
55173;DHT22;41061;52.822;6.860;2023-01-15T14:27:16;6.90;99.90
55173;DHT22;41061;52.822;6.860;2023-01-15T14:30:05;6.90;99.90
55173;DHT22;41061;52.822;6.860;2023-01-15T14:35:17;6.70;99.90
55173;DHT22;41061;52.822;6.860;2023-01-15T14:38:04;6.30;99.90
55173;DHT22;41061;52.822;6.860;2023-01-15T14:40:33;5.90;99.90
55173;DHT22;41061;52.822;6.860;2023-01-15T14:43:05;5.70;99.90
55173;DHT22;41061;52.822;6.860;2023-01-15T14:48:10;5.60;99.90
55173;DHT22;41061;52.822;6.860;2023-01-15T14:50:41;5.60;99.90
55173;DHT22;41061;52.822;6.860;2023-01-15T14:56:00;5.60;99.90
55173;DHT22;41061;52.822;6.860;2023-01-15T14:58:46;5.60;99.90
55173;DHT22;41061;52.822;6.860;2023-01-15T15:01:33;5.60;99.90
55173;DHT22;41061;52.822;6.860;2023-01-15T15:04:10;5.70;99.90
55173;DHT22;41061;52.822;6.860;2023-01-15T15:06:48;5.70;99.90
55173;DHT22;41061;52.822;6.860;2023-01-15T15:09:26;5.70;99.90
55173;DHT22;41061;52.822;6.860;2023-01-15T15:12:02;5.80;99.90
55173;DHT22;41061;52.822;6.860;2023-01-15T15:15:58;5.80;99.90
55173;DHT22;41061;52.822;6.860;2023-01-15T15:26:17;5.80;99.90
55173;DHT22;41061;52.822;6.860;2023-01-15T15:29:16;5.80;99.90
55173;DHT22;41061;52.822;6.860;2023-01-15T15:31:44;5.90;99.90
55173;DHT22;41061;52.822;6.860;2023-01-15T15:34:30;5.90;99.90
55173;DHT22;41061;52.822;6.860;2023-01-15T15:36:58;5.90;99.90
55173;DHT22;41061;52.822;6.860;2023-01-15T15:39:38;5.90;99.90
55173;DHT22;41061;52.822;6.860;2023-01-15T15:42:18;5.90;99.90
55173;DHT22;41061;52.822;6.860;2023-01-15T15:45:13;5.90;99.90
55173;DHT22;41061;52.822;6.860;2023-01-15T15:47:58;5.90;99.90
55173;DHT22;41061;52.822;6.860;2023-01-15T15:50:42;5.90;99.90
55173;DHT22;41061;52.822;6.860;2023-01-15T15:53:18;6.00;99.90
55173;DHT22;41061;52.822;6.860;2023-01-15T15:55:44;5.90;99.90
55173;DHT22;41061;52.822;6.860;2023-01-15T15:58:26;5.90;99.90
55173;DHT22;41061;52.822;6.860;2023-01-15T16:00:54;5.90;99.90
55173;DHT22;41061;52.822;6.860;2023-01-15T16:03:24;5.80;99.90
55173;DHT22;41061;52.822;6.860;2023-01-15T16:06:21;5.80;99.90
55173;DHT22;41061;52.822;6.860;2023-01-15T16:08:54;5.90;99.90
55173;DHT22;41061;52.822;6.860;2023-01-15T16:11:23;6.00;99.90
55173;DHT22;41061;52.822;6.860;2023-01-15T16:13:51;5.90;99.90
55173;DHT22;41061;52.822;6.860;2023-01-15T16:16:19;6.00;99.90
55173;DHT22;41061;52.822;6.860;2023-01-15T16:18:48;5.90;99.90
55173;DHT22;41061;52.822;6.860;2023-01-15T16:21:20;5.90;99.90
55173;DHT22;41061;52.822;6.860;2023-01-15T16:24:02;5.90;99.90
55173;DHT22;41061;52.822;6.860;2023-01-15T16:26:41;5.90;99.90
55173;DHT22;41061;52.822;6.860;2023-01-15T16:29:18;5.80;99.90
55173;DHT22;41061;52.822;6.860;2023-01-15T16:31:46;5.80;99.90
55173;DHT22;41061;52.822;6.860;2023-01-15T16:34:18;5.80;99.90
55173;DHT22;41061;52.822;6.860;2023-01-15T16:36:44;5.90;99.90
55173;DHT22;41061;52.822;6.860;2023-01-15T16:41:53;5.90;99.90
55173;DHT22;41061;52.822;6.860;2023-01-15T16:44:40;5.90;99.90
55173;DHT22;41061;52.822;6.860;2023-01-15T16:47:23;5.90;99.90
55173;DHT22;41061;52.822;6.860;2023-01-15T16:49:49;5.90;99.90
55173;DHT22;41061;52.822;6.860;2023-01-15T16:55:40;6.00;99.90
55173;DHT22;41061;52.822;6.860;2023-01-15T17:00:39;6.00;99.90
55173;DHT22;41061;52.822;6.860;2023-01-15T17:03:13;6.00;99.90
55173;DHT22;41061;52.822;6.860;2023-01-15T17:05:40;6.00;99.90
55173;DHT22;41061;52.822;6.860;2023-01-15T17:08:15;6.00;99.90
55173;DHT22;41061;52.822;6.860;2023-01-15T17:10:52;6.00;99.90
55173;DHT22;41061;52.822;6.860;2023-01-15T17:13:18;5.90;99.90
55173;DHT22;41061;52.822;6.860;2023-01-15T17:15:45;5.90;99.90
55173;DHT22;41061;52.822;6.860;2023-01-15T17:18:25;5.90;99.90
55173;DHT22;41061;52.822;6.860;2023-01-15T17:20:52;5.90;99.90
55173;DHT22;41061;52.822;6.860;2023-01-15T17:23:22;5.90;99.90
55173;DHT22;41061;52.822;6.860;2023-01-15T17:25:49;5.80;99.90
55173;DHT22;41061;52.822;6.860;2023-01-15T17:28:16;5.80;99.90
55173;DHT22;41061;52.822;6.860;2023-01-15T17:30:43;5.80;99.90
55173;DHT22;41061;52.822;6.860;2023-01-15T17:33:12;5.80;99.90
55173;DHT22;41061;52.822;6.860;2023-01-15T17:35:38;5.80;99.90
55173;DHT22;41061;52.822;6.860;2023-01-15T17:38:09;5.80;99.90
55173;DHT22;41061;52.822;6.860;2023-01-15T17:40:37;5.80;99.90
55173;DHT22;41061;52.822;6.860;2023-01-15T17:43:03;5.70;99.90
55173;DHT22;41061;52.822;6.860;2023-01-15T17:45:30;5.70;99.90
55173;DHT22;41061;52.822;6.860;2023-01-15T17:47:56;5.70;99.90
55173;DHT22;41061;52.822;6.860;2023-01-15T17:50:22;5.70;99.90
55173;DHT22;41061;52.822;6.860;2023-01-15T17:52:49;5.70;99.90
55173;DHT22;41061;52.822;6.860;2023-01-15T17:55:18;5.70;99.90
55173;DHT22;41061;52.822;6.860;2023-01-15T17:58:02;5.70;99.90
55173;DHT22;41061;52.822;6.860;2023-01-15T18:00:47;5.80;99.90
55173;DHT22;41061;52.822;6.860;2023-01-15T18:03:32;5.70;99.90
55173;DHT22;41061;52.822;6.860;2023-01-15T18:06:19;5.70;99.90